Accueil
METAR-TAF:

METAR-TAF

Aéroports :

Aéroport de Cagliari-Elmas

Cagliari, Italie

latitude: 39-15N, longitude: 009-04E, altitude: 4 m

Observation

Le bulletin a été fait il y a 37 minutes, à 07:50 UTC
Vent 6 kt de nord
Température 9°C
Humidité 100%
Pression 1020 hPa
Visibilité 10 km ou plus
pas de nuages en-dessous de 1500 mètres et pas de cumulonimbus.

METAR: LIEE 300750Z 36006KT CAVOK 09/09 Q1020

Heure: 09:27 (08:27 UTC)

Prévision

Le bulletin a été fait il y a 3 heures et 27 minutes, à 05:00 UTC
Prévision valable du 30 à 06 UTC au 01 à 06 UTC
Vent 6 kt de nord/nord-ouest
Visibilité 10 km ou plus
Nuages épars à une hauteur de 5000 ft

TAF: LIEE 300500Z 3006/0106 34006KT 9999 SCT050

Observations et prévisions météorologiques de plus de 4000 aéroports (messages METAR et TAF).

Les stations disponibles sont représentées par des disques jaunes et rouges sur la carte.

Passer la souris dessus pour voir le nom de la station.

Cliquer dessus pour voir les observations et prévisions météorologiques.

Pour changer de carte: cliquez sur les boutons verts avec une croix noire pour zoomer, sur le bouton vert avec un tiret pour effectuer un zoom arrière, ou sur les flèches vertes pour les cartes adjacentes.


METAR-TAF: